sensor_id;sensor_type;location;lat;lon;timestamp;P1;durP1;ratioP1;P2;durP2;ratioP2
24153;SDS011;12312;53.362;-1.518;2023-07-13T00:04:33;9.20;;;2.70;;
24153;SDS011;12312;53.362;-1.518;2023-07-13T00:07:17;7.43;;;3.60;;
24153;SDS011;12312;53.362;-1.518;2023-07-13T00:10:03;10.07;;;3.15;;
24153;SDS011;12312;53.362;-1.518;2023-07-13T00:12:48;9.30;;;2.85;;
24153;SDS011;12312;53.362;-1.518;2023-07-13T00:15:34;9.80;;;2.85;;
24153;SDS011;12312;53.362;-1.518;2023-07-13T00:18:19;4.60;;;2.85;;
24153;SDS011;12312;53.362;-1.518;2023-07-13T00:21:04;9.35;;;2.97;;
24153;SDS011;12312;53.362;-1.518;2023-07-13T00:23:49;8.07;;;2.80;;
24153;SDS011;12312;53.362;-1.518;2023-07-13T00:26:33;10.73;;;3.00;;
24153;SDS011;12312;53.362;-1.518;2023-07-13T00:29:17;10.65;;;3.15;;
24153;SDS011;12312;53.362;-1.518;2023-07-13T00:32:02;9.13;;;3.03;;
24153;SDS011;12312;53.362;-1.518;2023-07-13T00:34:47;6.10;;;2.70;;
24153;SDS011;12312;53.362;-1.518;2023-07-13T00:37:31;8.95;;;2.63;;
24153;SDS011;12312;53.362;-1.518;2023-07-13T00:40:15;12.57;;;3.00;;
24153;SDS011;12312;53.362;-1.518;2023-07-13T00:43:00;10.00;;;2.78;;
24153;SDS011;12312;53.362;-1.518;2023-07-13T00:48:31;8.70;;;2.78;;
24153;SDS011;12312;53.362;-1.518;2023-07-13T00:51:19;13.25;;;3.60;;
24153;SDS011;12312;53.362;-1.518;2023-07-13T00:54:09;8.40;;;3.42;;
24153;SDS011;12312;53.362;-1.518;2023-07-13T00:56:58;8.73;;;4.43;;
24153;SDS011;12312;53.362;-1.518;2023-07-13T00:59:47;12.15;;;4.20;;
24153;SDS011;12312;53.362;-1.518;2023-07-13T01:02:35;8.43;;;3.65;;
24153;SDS011;12312;53.362;-1.518;2023-07-13T01:05:22;11.80;;;4.20;;
24153;SDS011;12312;53.362;-1.518;2023-07-13T01:08:08;10.40;;;3.80;;
24153;SDS011;12312;53.362;-1.518;2023-07-13T01:10:53;17.20;;;4.72;;
24153;SDS011;12312;53.362;-1.518;2023-07-13T01:13:41;11.63;;;4.70;;
24153;SDS011;12312;53.362;-1.518;2023-07-13T01:16:27;10.90;;;3.85;;
24153;SDS011;12312;53.362;-1.518;2023-07-13T01:22:19;10.00;;;4.55;;
24153;SDS011;12312;53.362;-1.518;2023-07-13T01:25:09;11.23;;;3.97;;
24153;SDS011;12312;53.362;-1.518;2023-07-13T01:27:52;9.98;;;3.95;;
24153;SDS011;12312;53.362;-1.518;2023-07-13T01:30:37;12.32;;;3.33;;
24153;SDS011;12312;53.362;-1.518;2023-07-13T01:33:24;11.00;;;3.80;;
24153;SDS011;12312;53.362;-1.518;2023-07-13T01:36:09;10.98;;;3.70;;
24153;SDS011;12312;53.362;-1.518;2023-07-13T01:41:39;9.10;;;3.20;;
24153;SDS011;12312;53.362;-1.518;2023-07-13T01:44:23;9.07;;;3.05;;
24153;SDS011;12312;53.362;-1.518;2023-07-13T01:47:07;8.73;;;3.22;;
24153;SDS011;12312;53.362;-1.518;2023-07-13T01:49:51;12.43;;;6.18;;
24153;SDS011;12312;53.362;-1.518;2023-07-13T01:52:35;9.75;;;6.28;;
24153;SDS011;12312;53.362;-1.518;2023-07-13T01:55:20;11.80;;;6.68;;
24153;SDS011;12312;53.362;-1.518;2023-07-13T01:58:05;13.07;;;8.00;;
24153;SDS011;12312;53.362;-1.518;2023-07-13T02:00:49;14.93;;;8.10;;
24153;SDS011;12312;53.362;-1.518;2023-07-13T02:03:35;18.50;;;7.90;;
24153;SDS011;12312;53.362;-1.518;2023-07-13T02:06:19;14.68;;;6.30;;
24153;SDS011;12312;53.362;-1.518;2023-07-13T02:09:03;14.88;;;6.47;;
24153;SDS011;12312;53.362;-1.518;2023-07-13T02:11:47;11.68;;;6.10;;
24153;SDS011;12312;53.362;-1.518;2023-07-13T02:14:32;15.32;;;6.25;;
24153;SDS011;12312;53.362;-1.518;2023-07-13T02:17:16;12.23;;;6.13;;
24153;SDS011;12312;53.362;-1.518;2023-07-13T02:20:00;13.20;;;6.68;;
24153;SDS011;12312;53.362;-1.518;2023-07-13T02:22:45;19.53;;;7.37;;
24153;SDS011;12312;53.362;-1.518;2023-07-13T02:25:29;11.57;;;6.05;;
24153;SDS011;12312;53.362;-1.518;2023-07-13T02:28:13;15.30;;;7.03;;
24153;SDS011;12312;53.362;-1.518;2023-07-13T02:31:04;12.18;;;6.70;;
24153;SDS011;12312;53.362;-1.518;2023-07-13T02:33:49;17.23;;;7.40;;
24153;SDS011;12312;53.362;-1.518;2023-07-13T02:36:33;15.48;;;7.20;;
24153;SDS011;12312;53.362;-1.518;2023-07-13T02:39:17;14.30;;;6.45;;
24153;SDS011;12312;53.362;-1.518;2023-07-13T02:42:02;14.98;;;7.25;;
24153;SDS011;12312;53.362;-1.518;2023-07-13T02:44:47;18.42;;;7.43;;
24153;SDS011;12312;53.362;-1.518;2023-07-13T02:47:32;15.45;;;6.60;;
24153;SDS011;12312;53.362;-1.518;2023-07-13T02:50:16;19.02;;;10.00;;
24153;SDS011;12312;53.362;-1.518;2023-07-13T02:53:00;17.20;;;8.80;;
24153;SDS011;12312;53.362;-1.518;2023-07-13T02:55:44;15.75;;;8.68;;
24153;SDS011;12312;53.362;-1.518;2023-07-13T02:58:31;17.15;;;7.80;;
24153;SDS011;12312;53.362;-1.518;2023-07-13T03:01:15;15.00;;;8.00;;
24153;SDS011;12312;53.362;-1.518;2023-07-13T03:04:02;15.90;;;8.32;;
24153;SDS011;12312;53.362;-1.518;2023-07-13T03:06:46;17.35;;;8.23;;
24153;SDS011;12312;53.362;-1.518;2023-07-13T03:09:31;21.20;;;9.07;;
24153;SDS011;12312;53.362;-1.518;2023-07-13T03:12:16;19.35;;;8.13;;
24153;SDS011;12312;53.362;-1.518;2023-07-13T03:15:01;20.58;;;7.88;;
24153;SDS011;12312;53.362;-1.518;2023-07-13T03:17:45;12.15;;;7.85;;
24153;SDS011;12312;53.362;-1.518;2023-07-13T03:20:31;15.90;;;8.05;;
24153;SDS011;12312;53.362;-1.518;2023-07-13T03:23:17;14.18;;;7.75;;
24153;SDS011;12312;53.362;-1.518;2023-07-13T03:26:14;15.30;;;7.57;;
24153;SDS011;12312;53.362;-1.518;2023-07-13T03:29:01;15.80;;;8.73;;
24153;SDS011;12312;53.362;-1.518;2023-07-13T03:31:45;16.40;;;7.72;;
24153;SDS011;12312;53.362;-1.518;2023-07-13T03:34:29;13.35;;;7.72;;
24153;SDS011;12312;53.362;-1.518;2023-07-13T03:37:13;14.70;;;7.38;;
24153;SDS011;12312;53.362;-1.518;2023-07-13T03:39:57;14.85;;;8.00;;
24153;SDS011;12312;53.362;-1.518;2023-07-13T03:42:42;16.52;;;7.43;;
24153;SDS011;12312;53.362;-1.518;2023-07-13T03:45:26;16.58;;;7.65;;
24153;SDS011;12312;53.362;-1.518;2023-07-13T03:48:10;17.17;;;7.45;;
24153;SDS011;12312;53.362;-1.518;2023-07-13T03:50:54;11.38;;;7.85;;
24153;SDS011;12312;53.362;-1.518;2023-07-13T03:53:38;14.85;;;7.25;;
24153;SDS011;12312;53.362;-1.518;2023-07-13T03:56:24;12.65;;;7.38;;
24153;SDS011;12312;53.362;-1.518;2023-07-13T03:59:08;12.13;;;7.05;;
24153;SDS011;12312;53.362;-1.518;2023-07-13T04:01:52;13.98;;;7.88;;
24153;SDS011;12312;53.362;-1.518;2023-07-13T04:04:37;12.32;;;7.32;;
24153;SDS011;12312;53.362;-1.518;2023-07-13T04:07:24;10.13;;;6.95;;
24153;SDS011;12312;53.362;-1.518;2023-07-13T04:10:08;12.60;;;7.18;;
24153;SDS011;12312;53.362;-1.518;2023-07-13T04:12:53;12.48;;;7.47;;
24153;SDS011;12312;53.362;-1.518;2023-07-13T04:15:38;11.05;;;6.93;;
24153;SDS011;12312;53.362;-1.518;2023-07-13T04:18:22;12.52;;;7.15;;
24153;SDS011;12312;53.362;-1.518;2023-07-13T04:21:06;11.95;;;7.03;;
24153;SDS011;12312;53.362;-1.518;2023-07-13T04:23:52;13.43;;;7.15;;
24153;SDS011;12312;53.362;-1.518;2023-07-13T04:26:37;11.35;;;7.15;;
24153;SDS011;12312;53.362;-1.518;2023-07-13T04:29:22;12.43;;;8.27;;
24153;SDS011;12312;53.362;-1.518;2023-07-13T04:32:06;14.57;;;7.35;;
24153;SDS011;12312;53.362;-1.518;2023-07-13T04:34:50;13.82;;;7.70;;
24153;SDS011;12312;53.362;-1.518;2023-07-13T04:37:36;21.48;;;13.45;;
24153;SDS011;12312;53.362;-1.518;2023-07-13T04:40:20;21.77;;;11.18;;
24153;SDS011;12312;53.362;-1.518;2023-07-13T04:43:05;18.80;;;10.73;;
24153;SDS011;12312;53.362;-1.518;2023-07-13T04:45:49;17.95;;;11.48;;
24153;SDS011;12312;53.362;-1.518;2023-07-13T04:48:37;18.73;;;11.25;;
24153;SDS011;12312;53.362;-1.518;2023-07-13T04:51:21;18.13;;;11.13;;
24153;SDS011;12312;53.362;-1.518;2023-07-13T04:54:06;20.00;;;11.02;;
24153;SDS011;12312;53.362;-1.518;2023-07-13T04:56:51;15.85;;;10.75;;
24153;SDS011;12312;53.362;-1.518;2023-07-13T04:59:35;15.70;;;11.05;;
24153;SDS011;12312;53.362;-1.518;2023-07-13T05:02:22;16.25;;;10.32;;
24153;SDS011;12312;53.362;-1.518;2023-07-13T05:05:07;17.52;;;10.57;;
24153;SDS011;12312;53.362;-1.518;2023-07-13T05:07:51;17.30;;;10.60;;
24153;SDS011;12312;53.362;-1.518;2023-07-13T05:10:37;15.98;;;11.25;;
24153;SDS011;12312;53.362;-1.518;2023-07-13T05:13:21;14.90;;;10.35;;
24153;SDS011;12312;53.362;-1.518;2023-07-13T05:16:07;14.30;;;10.25;;
24153;SDS011;12312;53.362;-1.518;2023-07-13T05:18:51;11.05;;;8.82;;
24153;SDS011;12312;53.362;-1.518;2023-07-13T05:21:35;11.90;;;8.82;;
24153;SDS011;12312;53.362;-1.518;2023-07-13T05:24:20;14.93;;;8.15;;
24153;SDS011;12312;53.362;-1.518;2023-07-13T05:27:04;12.13;;;9.15;;
24153;SDS011;12312;53.362;-1.518;2023-07-13T05:29:48;12.27;;;7.70;;
24153;SDS011;12312;53.362;-1.518;2023-07-13T05:32:33;13.98;;;9.27;;
24153;SDS011;12312;53.362;-1.518;2023-07-13T05:35:17;13.25;;;9.30;;
24153;SDS011;12312;53.362;-1.518;2023-07-13T05:38:01;11.50;;;8.23;;
24153;SDS011;12312;53.362;-1.518;2023-07-13T05:40:45;13.25;;;7.65;;
24153;SDS011;12312;53.362;-1.518;2023-07-13T05:43:30;8.45;;;6.68;;
24153;SDS011;12312;53.362;-1.518;2023-07-13T05:46:14;10.25;;;7.15;;
24153;SDS011;12312;53.362;-1.518;2023-07-13T05:48:58;8.95;;;6.55;;
24153;SDS011;12312;53.362;-1.518;2023-07-13T05:51:42;6.35;;;5.75;;
24153;SDS011;12312;53.362;-1.518;2023-07-13T05:54:26;8.25;;;5.72;;
24153;SDS011;12312;53.362;-1.518;2023-07-13T05:57:10;10.13;;;5.45;;
24153;SDS011;12312;53.362;-1.518;2023-07-13T05:59:54;6.63;;;4.55;;
24153;SDS011;12312;53.362;-1.518;2023-07-13T06:02:38;7.10;;;5.20;;
24153;SDS011;12312;53.362;-1.518;2023-07-13T06:05:23;6.03;;;4.80;;
24153;SDS011;12312;53.362;-1.518;2023-07-13T06:08:07;7.93;;;4.70;;
24153;SDS011;12312;53.362;-1.518;2023-07-13T06:10:51;6.47;;;4.55;;
24153;SDS011;12312;53.362;-1.518;2023-07-13T06:13:35;4.05;;;3.70;;
24153;SDS011;12312;53.362;-1.518;2023-07-13T06:16:20;4.50;;;4.00;;
24153;SDS011;12312;53.362;-1.518;2023-07-13T06:19:04;5.35;;;4.10;;
24153;SDS011;12312;53.362;-1.518;2023-07-13T06:21:48;7.10;;;4.57;;
24153;SDS011;12312;53.362;-1.518;2023-07-13T06:24:32;7.95;;;4.32;;
24153;SDS011;12312;53.362;-1.518;2023-07-13T06:27:16;8.43;;;4.53;;
24153;SDS011;12312;53.362;-1.518;2023-07-13T06:30:00;9.35;;;4.60;;
24153;SDS011;12312;53.362;-1.518;2023-07-13T06:32:45;10.70;;;4.55;;
24153;SDS011;12312;53.362;-1.518;2023-07-13T06:35:29;6.60;;;4.53;;
24153;SDS011;12312;53.362;-1.518;2023-07-13T06:38:13;7.55;;;5.13;;
24153;SDS011;12312;53.362;-1.518;2023-07-13T06:40:57;7.20;;;4.80;;
24153;SDS011;12312;53.362;-1.518;2023-07-13T06:43:41;5.93;;;5.32;;
24153;SDS011;12312;53.362;-1.518;2023-07-13T06:46:25;6.15;;;4.90;;
24153;SDS011;12312;53.362;-1.518;2023-07-13T06:49:12;7.25;;;4.10;;
24153;SDS011;12312;53.362;-1.518;2023-07-13T06:51:56;7.95;;;4.28;;
24153;SDS011;12312;53.362;-1.518;2023-07-13T06:54:40;7.13;;;4.25;;
24153;SDS011;12312;53.362;-1.518;2023-07-13T06:57:23;5.32;;;4.55;;
24153;SDS011;12312;53.362;-1.518;2023-07-13T07:00:07;9.63;;;4.20;;
24153;SDS011;12312;53.362;-1.518;2023-07-13T07:05:37;7.32;;;5.65;;
24153;SDS011;12312;53.362;-1.518;2023-07-13T07:08:21;9.77;;;5.38;;
24153;SDS011;12312;53.362;-1.518;2023-07-13T07:11:08;10.00;;;5.68;;
24153;SDS011;12312;53.362;-1.518;2023-07-13T07:13:56;5.65;;;5.00;;
24153;SDS011;12312;53.362;-1.518;2023-07-13T07:16:40;8.40;;;5.25;;
24153;SDS011;12312;53.362;-1.518;2023-07-13T07:19:23;6.30;;;4.82;;
24153;SDS011;12312;53.362;-1.518;2023-07-13T07:22:07;9.55;;;5.72;;
24153;SDS011;12312;53.362;-1.518;2023-07-13T07:24:51;8.45;;;5.68;;
24153;SDS011;12312;53.362;-1.518;2023-07-13T07:27:35;7.28;;;4.85;;
24153;SDS011;12312;53.362;-1.518;2023-07-13T07:30:19;7.63;;;4.43;;
24153;SDS011;12312;53.362;-1.518;2023-07-13T07:33:03;5.68;;;3.95;;
24153;SDS011;12312;53.362;-1.518;2023-07-13T07:35:47;5.18;;;3.17;;
24153;SDS011;12312;53.362;-1.518;2023-07-13T07:38:32;7.60;;;3.88;;
24153;SDS011;12312;53.362;-1.518;2023-07-13T07:41:15;6.93;;;4.03;;
24153;SDS011;12312;53.362;-1.518;2023-07-13T07:43:59;5.68;;;3.90;;
24153;SDS011;12312;53.362;-1.518;2023-07-13T07:46:43;6.80;;;3.97;;
24153;SDS011;12312;53.362;-1.518;2023-07-13T07:49:28;6.05;;;3.60;;
24153;SDS011;12312;53.362;-1.518;2023-07-13T07:52:12;7.85;;;3.65;;
24153;SDS011;12312;53.362;-1.518;2023-07-13T07:54:56;5.43;;;3.20;;
24153;SDS011;12312;53.362;-1.518;2023-07-13T07:57:40;7.93;;;3.30;;
24153;SDS011;12312;53.362;-1.518;2023-07-13T08:00:25;6.07;;;3.20;;
24153;SDS011;12312;53.362;-1.518;2023-07-13T08:03:09;7.35;;;3.40;;
24153;SDS011;12312;53.362;-1.518;2023-07-13T08:05:54;5.63;;;3.45;;
24153;SDS011;12312;53.362;-1.518;2023-07-13T08:08:38;4.60;;;3.55;;
24153;SDS011;12312;53.362;-1.518;2023-07-13T08:11:22;3.88;;;3.20;;
24153;SDS011;12312;53.362;-1.518;2023-07-13T08:14:06;5.70;;;3.25;;
24153;SDS011;12312;53.362;-1.518;2023-07-13T08:16:50;6.38;;;3.67;;
24153;SDS011;12312;53.362;-1.518;2023-07-13T08:19:34;5.95;;;3.25;;
24153;SDS011;12312;53.362;-1.518;2023-07-13T08:22:18;7.35;;;3.40;;
24153;SDS011;12312;53.362;-1.518;2023-07-13T08:25:02;6.82;;;3.00;;
24153;SDS011;12312;53.362;-1.518;2023-07-13T08:27:46;4.57;;;2.90;;
24153;SDS011;12312;53.362;-1.518;2023-07-13T08:30:30;6.72;;;3.10;;
24153;SDS011;12312;53.362;-1.518;2023-07-13T08:33:15;7.43;;;3.22;;
24153;SDS011;12312;53.362;-1.518;2023-07-13T08:36:02;6.93;;;3.65;;
24153;SDS011;12312;53.362;-1.518;2023-07-13T08:38:47;7.68;;;3.33;;
24153;SDS011;12312;53.362;-1.518;2023-07-13T08:41:30;5.85;;;2.72;;
24153;SDS011;12312;53.362;-1.518;2023-07-13T08:44:18;4.63;;;2.25;;
24153;SDS011;12312;53.362;-1.518;2023-07-13T08:47:11;3.95;;;2.42;;
24153;SDS011;12312;53.362;-1.518;2023-07-13T08:49:57;6.15;;;2.10;;
24153;SDS011;12312;53.362;-1.518;2023-07-13T08:52:42;3.92;;;1.75;;
24153;SDS011;12312;53.362;-1.518;2023-07-13T08:55:29;3.03;;;1.63;;
24153;SDS011;12312;53.362;-1.518;2023-07-13T08:58:17;4.20;;;1.90;;
24153;SDS011;12312;53.362;-1.518;2023-07-13T09:01:15;4.53;;;1.85;;
24153;SDS011;12312;53.362;-1.518;2023-07-13T09:04:16;4.47;;;2.00;;
24153;SDS011;12312;53.362;-1.518;2023-07-13T09:07:05;5.95;;;3.45;;
24153;SDS011;12312;53.362;-1.518;2023-07-13T09:16:23;5.15;;;1.90;;
24153;SDS011;12312;53.362;-1.518;2023-07-13T09:19:08;3.05;;;1.95;;
24153;SDS011;12312;53.362;-1.518;2023-07-13T09:21:57;2.75;;;1.92;;
24153;SDS011;12312;53.362;-1.518;2023-07-13T09:24:52;8.05;;;2.58;;
24153;SDS011;12312;53.362;-1.518;2023-07-13T09:27:42;5.50;;;2.00;;
24153;SDS011;12312;53.362;-1.518;2023-07-13T09:30:34;3.80;;;2.22;;
24153;SDS011;12312;53.362;-1.518;2023-07-13T09:33:25;4.68;;;2.50;;
24153;SDS011;12312;53.362;-1.518;2023-07-13T09:39:21;4.93;;;2.03;;
24153;SDS011;12312;53.362;-1.518;2023-07-13T09:42:17;4.10;;;2.13;;
24153;SDS011;12312;53.362;-1.518;2023-07-13T09:45:05;3.47;;;2.00;;
24153;SDS011;12312;53.362;-1.518;2023-07-13T09:47:58;5.32;;;1.83;;
24153;SDS011;12312;53.362;-1.518;2023-07-13T09:50:47;5.15;;;2.00;;
24153;SDS011;12312;53.362;-1.518;2023-07-13T09:53:31;4.25;;;2.08;;
24153;SDS011;12312;53.362;-1.518;2023-07-13T09:56:22;7.80;;;2.00;;
24153;SDS011;12312;53.362;-1.518;2023-07-13T09:59:19;6.18;;;1.92;;
24153;SDS011;12312;53.362;-1.518;2023-07-13T10:02:22;7.13;;;2.10;;
24153;SDS011;12312;53.362;-1.518;2023-07-13T10:05:13;6.72;;;1.80;;
24153;SDS011;12312;53.362;-1.518;2023-07-13T10:07:59;5.63;;;2.22;;
24153;SDS011;12312;53.362;-1.518;2023-07-13T10:10:43;3.78;;;2.42;;
24153;SDS011;12312;53.362;-1.518;2023-07-13T10:16:18;5.57;;;2.53;;
24153;SDS011;12312;53.362;-1.518;2023-07-13T10:19:04;5.13;;;2.15;;
24153;SDS011;12312;53.362;-1.518;2023-07-13T10:27:29;5.63;;;2.50;;
24153;SDS011;12312;53.362;-1.518;2023-07-13T10:30:22;5.15;;;2.60;;
24153;SDS011;12312;53.362;-1.518;2023-07-13T10:33:13;4.30;;;2.83;;
24153;SDS011;12312;53.362;-1.518;2023-07-13T10:36:01;7.22;;;3.42;;
24153;SDS011;12312;53.362;-1.518;2023-07-13T10:38:56;3.17;;;2.63;;
24153;SDS011;12312;53.362;-1.518;2023-07-13T10:41:42;5.22;;;2.90;;
24153;SDS011;12312;53.362;-1.518;2023-07-13T10:44:31;3.45;;;2.40;;
24153;SDS011;12312;53.362;-1.518;2023-07-13T10:47:16;4.28;;;2.13;;
24153;SDS011;12312;53.362;-1.518;2023-07-13T10:50:01;5.18;;;2.10;;
24153;SDS011;12312;53.362;-1.518;2023-07-13T10:52:51;3.70;;;2.40;;
24153;SDS011;12312;53.362;-1.518;2023-07-13T10:55:40;5.60;;;1.90;;
24153;SDS011;12312;53.362;-1.518;2023-07-13T10:58:39;4.78;;;2.00;;
24153;SDS011;12312;53.362;-1.518;2023-07-13T11:01:25;6.00;;;1.85;;
24153;SDS011;12312;53.362;-1.518;2023-07-13T11:04:10;3.35;;;1.40;;
24153;SDS011;12312;53.362;-1.518;2023-07-13T11:06:59;4.28;;;1.60;;
24153;SDS011;12312;53.362;-1.518;2023-07-13T11:10:00;2.65;;;1.75;;
24153;SDS011;12312;53.362;-1.518;2023-07-13T11:12:53;3.38;;;1.70;;
24153;SDS011;12312;53.362;-1.518;2023-07-13T11:15:44;2.63;;;1.65;;
24153;SDS011;12312;53.362;-1.518;2023-07-13T11:18:32;1.80;;;1.33;;
24153;SDS011;12312;53.362;-1.518;2023-07-13T11:21:17;4.65;;;1.60;;
24153;SDS011;12312;53.362;-1.518;2023-07-13T11:24:19;5.05;;;1.95;;
24153;SDS011;12312;53.362;-1.518;2023-07-13T11:27:14;4.32;;;1.50;;
24153;SDS011;12312;53.362;-1.518;2023-07-13T11:30:31;5.82;;;1.67;;
24153;SDS011;12312;53.362;-1.518;2023-07-13T11:33:21;3.15;;;1.77;;
24153;SDS011;12312;53.362;-1.518;2023-07-13T11:36:15;5.43;;;1.80;;
24153;SDS011;12312;53.362;-1.518;2023-07-13T11:44:49;3.38;;;1.33;;
24153;SDS011;12312;53.362;-1.518;2023-07-13T11:47:34;4.53;;;1.20;;
24153;SDS011;12312;53.362;-1.518;2023-07-13T11:50:22;4.97;;;1.35;;
24153;SDS011;12312;53.362;-1.518;2023-07-13T11:53:08;5.07;;;1.52;;
24153;SDS011;12312;53.362;-1.518;2023-07-13T11:58:38;2.20;;;1.10;;
24153;SDS011;12312;53.362;-1.518;2023-07-13T12:01:28;3.45;;;1.10;;
24153;SDS011;12312;53.362;-1.518;2023-07-13T12:04:19;3.28;;;1.00;;
24153;SDS011;12312;53.362;-1.518;2023-07-13T12:07:16;3.88;;;1.30;;
24153;SDS011;12312;53.362;-1.518;2023-07-13T12:10:02;4.35;;;1.20;;
24153;SDS011;12312;53.362;-1.518;2023-07-13T12:13:00;1.83;;;1.15;;
24153;SDS011;12312;53.362;-1.518;2023-07-13T12:15:46;2.10;;;0.95;;
24153;SDS011;12312;53.362;-1.518;2023-07-13T12:18:32;2.95;;;1.20;;
24153;SDS011;12312;53.362;-1.518;2023-07-13T12:21:18;3.13;;;1.08;;
24153;SDS011;12312;53.362;-1.518;2023-07-13T12:24:03;2.75;;;1.35;;
24153;SDS011;12312;53.362;-1.518;2023-07-13T12:26:52;5.47;;;2.10;;
24153;SDS011;12312;53.362;-1.518;2023-07-13T12:29:39;3.55;;;1.65;;
24153;SDS011;12312;53.362;-1.518;2023-07-13T12:32:24;4.20;;;1.67;;
24153;SDS011;12312;53.362;-1.518;2023-07-13T12:35:16;4.97;;;1.45;;
24153;SDS011;12312;53.362;-1.518;2023-07-13T12:38:02;5.35;;;1.92;;
24153;SDS011;12312;53.362;-1.518;2023-07-13T12:40:48;6.10;;;1.60;;
24153;SDS011;12312;53.362;-1.518;2023-07-13T12:43:34;4.40;;;1.42;;
24153;SDS011;12312;53.362;-1.518;2023-07-13T12:46:22;3.67;;;1.20;;
24153;SDS011;12312;53.362;-1.518;2023-07-13T12:49:07;2.28;;;1.33;;
24153;SDS011;12312;53.362;-1.518;2023-07-13T12:51:55;4.45;;;1.30;;
24153;SDS011;12312;53.362;-1.518;2023-07-13T12:54:51;3.45;;;1.52;;
24153;SDS011;12312;53.362;-1.518;2023-07-13T12:57:40;2.65;;;1.15;;
24153;SDS011;12312;53.362;-1.518;2023-07-13T13:00:36;3.20;;;1.37;;
24153;SDS011;12312;53.362;-1.518;2023-07-13T13:03:24;5.25;;;1.35;;
24153;SDS011;12312;53.362;-1.518;2023-07-13T13:09:02;5.38;;;1.70;;
24153;SDS011;12312;53.362;-1.518;2023-07-13T13:11:47;3.63;;;1.30;;
24153;SDS011;12312;53.362;-1.518;2023-07-13T13:14:34;3.20;;;1.20;;
24153;SDS011;12312;53.362;-1.518;2023-07-13T13:17:22;3.83;;;1.75;;
24153;SDS011;12312;53.362;-1.518;2023-07-13T13:20:18;6.70;;;1.48;;
24153;SDS011;12312;53.362;-1.518;2023-07-13T13:23:04;3.63;;;1.57;;
24153;SDS011;12312;53.362;-1.518;2023-07-13T13:25:49;4.13;;;1.40;;
24153;SDS011;12312;53.362;-1.518;2023-07-13T13:28:34;4.68;;;1.42;;
24153;SDS011;12312;53.362;-1.518;2023-07-13T13:31:18;3.17;;;1.50;;
24153;SDS011;12312;53.362;-1.518;2023-07-13T13:34:02;3.33;;;1.58;;
24153;SDS011;12312;53.362;-1.518;2023-07-13T13:36:46;3.80;;;1.45;;
24153;SDS011;12312;53.362;-1.518;2023-07-13T13:39:35;4.15;;;1.40;;
24153;SDS011;12312;53.362;-1.518;2023-07-13T13:42:20;2.40;;;1.60;;
24153;SDS011;12312;53.362;-1.518;2023-07-13T13:45:12;4.65;;;1.80;;
24153;SDS011;12312;53.362;-1.518;2023-07-13T13:47:56;5.90;;;1.85;;
24153;SDS011;12312;53.362;-1.518;2023-07-13T13:50:41;5.88;;;1.75;;
24153;SDS011;12312;53.362;-1.518;2023-07-13T13:53:25;5.55;;;1.70;;
24153;SDS011;12312;53.362;-1.518;2023-07-13T13:56:10;4.57;;;1.77;;
24153;SDS011;12312;53.362;-1.518;2023-07-13T13:58:53;6.03;;;1.50;;
24153;SDS011;12312;53.362;-1.518;2023-07-13T14:01:38;4.32;;;1.90;;
24153;SDS011;12312;53.362;-1.518;2023-07-13T14:04:23;3.33;;;1.80;;
24153;SDS011;12312;53.362;-1.518;2023-07-13T14:07:07;5.35;;;2.05;;
24153;SDS011;12312;53.362;-1.518;2023-07-13T14:09:52;3.50;;;1.58;;
24153;SDS011;12312;53.362;-1.518;2023-07-13T14:12:41;5.07;;;1.77;;
24153;SDS011;12312;53.362;-1.518;2023-07-13T14:15:28;3.05;;;1.45;;
24153;SDS011;12312;53.362;-1.518;2023-07-13T14:18:17;2.20;;;1.45;;
24153;SDS011;12312;53.362;-1.518;2023-07-13T14:21:01;4.63;;;1.50;;
24153;SDS011;12312;53.362;-1.518;2023-07-13T14:23:45;3.38;;;1.50;;
24153;SDS011;12312;53.362;-1.518;2023-07-13T14:26:32;2.70;;;1.45;;
24153;SDS011;12312;53.362;-1.518;2023-07-13T14:29:23;3.97;;;1.63;;
24153;SDS011;12312;53.362;-1.518;2023-07-13T14:32:10;5.13;;;1.80;;
24153;SDS011;12312;53.362;-1.518;2023-07-13T14:34:55;2.80;;;1.60;;
24153;SDS011;12312;53.362;-1.518;2023-07-13T14:37:41;4.78;;;1.98;;
24153;SDS011;12312;53.362;-1.518;2023-07-13T14:43:13;3.40;;;1.55;;
24153;SDS011;12312;53.362;-1.518;2023-07-13T14:45:58;1.85;;;1.60;;
24153;SDS011;12312;53.362;-1.518;2023-07-13T14:48:43;5.22;;;1.80;;
24153;SDS011;12312;53.362;-1.518;2023-07-13T14:51:28;4.07;;;2.03;;
24153;SDS011;12312;53.362;-1.518;2023-07-13T14:54:12;3.72;;;1.45;;
24153;SDS011;12312;53.362;-1.518;2023-07-13T14:56:56;3.30;;;1.63;;
24153;SDS011;12312;53.362;-1.518;2023-07-13T14:59:40;3.60;;;1.70;;
24153;SDS011;12312;53.362;-1.518;2023-07-13T15:02:31;3.88;;;1.85;;
24153;SDS011;12312;53.362;-1.518;2023-07-13T15:05:20;3.70;;;1.90;;
24153;SDS011;12312;53.362;-1.518;2023-07-13T15:08:09;3.28;;;2.08;;
24153;SDS011;12312;53.362;-1.518;2023-07-13T15:10:54;3.80;;;1.83;;
24153;SDS011;12312;53.362;-1.518;2023-07-13T15:13:41;4.78;;;1.55;;
24153;SDS011;12312;53.362;-1.518;2023-07-13T15:16:28;3.92;;;1.88;;
24153;SDS011;12312;53.362;-1.518;2023-07-13T15:19:12;4.97;;;1.50;;
24153;SDS011;12312;53.362;-1.518;2023-07-13T15:21:56;4.35;;;1.95;;
24153;SDS011;12312;53.362;-1.518;2023-07-13T15:24:41;3.50;;;2.20;;
24153;SDS011;12312;53.362;-1.518;2023-07-13T15:27:25;5.30;;;2.20;;
24153;SDS011;12312;53.362;-1.518;2023-07-13T15:30:11;4.05;;;2.00;;
24153;SDS011;12312;53.362;-1.518;2023-07-13T15:33:00;2.70;;;1.50;;
24153;SDS011;12312;53.362;-1.518;2023-07-13T15:35:50;4.03;;;2.10;;
24153;SDS011;12312;53.362;-1.518;2023-07-13T15:38:34;4.32;;;1.95;;
24153;SDS011;12312;53.362;-1.518;2023-07-13T15:41:25;4.90;;;1.98;;
24153;SDS011;12312;53.362;-1.518;2023-07-13T15:44:27;4.45;;;2.00;;
24153;SDS011;12312;53.362;-1.518;2023-07-13T15:47:14;2.95;;;1.60;;
24153;SDS011;12312;53.362;-1.518;2023-07-13T15:52:44;3.85;;;1.52;;
24153;SDS011;12312;53.362;-1.518;2023-07-13T15:55:30;3.33;;;1.90;;
24153;SDS011;12312;53.362;-1.518;2023-07-13T15:58:15;3.55;;;1.27;;
24153;SDS011;12312;53.362;-1.518;2023-07-13T16:00:59;2.58;;;1.60;;
24153;SDS011;12312;53.362;-1.518;2023-07-13T16:03:45;3.80;;;1.73;;
24153;SDS011;12312;53.362;-1.518;2023-07-13T16:06:34;2.90;;;1.58;;
24153;SDS011;12312;53.362;-1.518;2023-07-13T16:09:20;3.95;;;1.48;;
24153;SDS011;12312;53.362;-1.518;2023-07-13T16:12:10;4.47;;;1.50;;
24153;SDS011;12312;53.362;-1.518;2023-07-13T16:14:58;4.55;;;1.63;;
24153;SDS011;12312;53.362;-1.518;2023-07-13T16:17:42;4.18;;;1.70;;
24153;SDS011;12312;53.362;-1.518;2023-07-13T16:20:28;2.95;;;1.83;;
24153;SDS011;12312;53.362;-1.518;2023-07-13T16:23:13;3.13;;;1.65;;
24153;SDS011;12312;53.362;-1.518;2023-07-13T16:25:58;2.55;;;1.80;;
24153;SDS011;12312;53.362;-1.518;2023-07-13T16:28:42;3.30;;;2.05;;
24153;SDS011;12312;53.362;-1.518;2023-07-13T16:31:30;4.43;;;1.80;;
24153;SDS011;12312;53.362;-1.518;2023-07-13T16:34:18;4.97;;;1.80;;
24153;SDS011;12312;53.362;-1.518;2023-07-13T16:37:02;4.20;;;1.98;;
24153;SDS011;12312;53.362;-1.518;2023-07-13T16:39:56;3.42;;;1.90;;
24153;SDS011;12312;53.362;-1.518;2023-07-13T16:42:41;2.42;;;1.65;;
24153;SDS011;12312;53.362;-1.518;2023-07-13T16:45:26;4.90;;;2.10;;
24153;SDS011;12312;53.362;-1.518;2023-07-13T16:48:18;4.40;;;2.20;;
24153;SDS011;12312;53.362;-1.518;2023-07-13T16:51:05;4.25;;;2.30;;
24153;SDS011;12312;53.362;-1.518;2023-07-13T16:53:50;8.95;;;2.30;;
24153;SDS011;12312;53.362;-1.518;2023-07-13T16:56:34;6.38;;;1.90;;
24153;SDS011;12312;53.362;-1.518;2023-07-13T16:59:19;3.80;;;1.98;;
24153;SDS011;12312;53.362;-1.518;2023-07-13T17:02:30;5.03;;;2.13;;
24153;SDS011;12312;53.362;-1.518;2023-07-13T17:05:16;3.58;;;1.50;;
24153;SDS011;12312;53.362;-1.518;2023-07-13T17:08:00;4.82;;;1.88;;
24153;SDS011;12312;53.362;-1.518;2023-07-13T17:10:47;3.95;;;1.60;;
24153;SDS011;12312;53.362;-1.518;2023-07-13T17:16:16;3.08;;;2.03;;